»·PEaware :: N676TX KBOI-KHLN

N676TX :: KBOI-KHLN

FLIGHT INFORMATION

Flight Status: Arrived
Operator: Privately registered:
United States
More flights under this callsign
Pilot: Christopher C. (18958)
Aircraft: SOCATA TBM-900
(TBM9)
More flights by this aircraft type
Origin: KBOI Boise Air Terminal/Gowen
United States
Destination: KHLN Helena Regl
United States
More flights between these airports :: More routes between these airports
Route: +BOI6 BOI BARNR LKT V113 HLN
File this flight plan on PilotEdge
Remarks:
Altitude:
(Current/Filed)
29,000ft
Speed:
(Current/Filed)
317kts
Departed: 05-Apr-20 08:51 AM
Arrived: 05-Apr-20 09:47 AM
Distance/Time
Traveled:
255nm/0:56
Distance/Time
To Go:
Arrived

Flight Plot

Page will automatically refresh every two minutes.


Map Options




Map Legend


Flown Route
Filed Route
Departure Airport
Arrival Airport
Navaid (VOR, NDB)
Fix

Horizontal Profiles

Position Reports

Time Latitude Longitude Heading Altitude Ground
Speed
05-Apr-20 08:22 43.569878 -116.228783 182 2839ft 0kts
05-Apr-20 08:23 43.569878 -116.228783 182 2839ft 0kts
05-Apr-20 08:24 43.569878 -116.228783 182 2839ft 0kts
05-Apr-20 08:25 43.569878 -116.228783 182 2839ft 0kts
05-Apr-20 08:26 43.569878 -116.228783 182 2839ft 0kts
05-Apr-20 08:27 43.569878 -116.228783 182 2839ft 0kts
05-Apr-20 08:28 43.569878 -116.228783 182 2839ft 0kts
05-Apr-20 08:29 43.569878 -116.228783 182 2839ft 0kts
05-Apr-20 08:30 43.569878 -116.228783 182 2839ft 0kts
05-Apr-20 08:31 43.569878 -116.228783 182 2839ft 0kts
05-Apr-20 08:32 43.569878 -116.228783 182 2839ft 0kts
05-Apr-20 08:33 43.569878 -116.228783 182 2839ft 0kts
05-Apr-20 08:34 43.569878 -116.228783 182 2839ft 0kts
05-Apr-20 08:35 43.569878 -116.228783 182 2839ft 0kts
05-Apr-20 08:36 43.569878 -116.228783 182 2839ft 0kts
05-Apr-20 08:37 43.569878 -116.228783 182 2839ft 0kts
05-Apr-20 08:38 43.569878 -116.228783 182 2839ft 0kts
05-Apr-20 08:39 43.569878 -116.228783 182 2839ft 0kts
05-Apr-20 08:40 43.569878 -116.228783 182 2839ft 0kts
05-Apr-20 08:41 43.569878 -116.228783 182 2839ft 0kts
05-Apr-20 08:42 43.569878 -116.228783 182 2839ft 0kts
05-Apr-20 08:43 43.569878 -116.228783 182 2839ft 0kts
05-Apr-20 08:44 43.569878 -116.228783 182 2839ft 0kts
05-Apr-20 08:45 43.569564 -116.228084 204 2840ft 6kts
05-Apr-20 08:46 43.569235 -116.228297 204 2840ft 0kts
05-Apr-20 08:47 43.569262 -116.230598 295 2837ft 14kts
05-Apr-20 08:48 43.570956 -116.235586 296 2828ft 8kts
05-Apr-20 08:49 43.570941 -116.236192 225 2828ft 2kts
05-Apr-20 08:50 43.569056 -116.233505 116 2833ft 71kts
05-Apr-20 08:51 43.555932 -116.193161 111 4192ft 128kts
05-Apr-20 08:52 43.542733 -116.146013 111 6155ft 137kts
05-Apr-20 08:53 43.529098 -116.097030 112 8078ft 140kts
05-Apr-20 08:54 43.522449 -116.045824 49 10128ft 155kts
05-Apr-20 08:55 43.560068 -116.009962 35 11891ft 174kts
05-Apr-20 08:56 43.600471 -115.966430 37 13537ft 200kts
05-Apr-20 08:57 43.645280 -115.916861 37 15385ft 213kts
05-Apr-20 08:58 43.694242 -115.862450 37 16931ft 234kts
05-Apr-20 08:59 43.746913 -115.803779 37 18369ft 248kts
05-Apr-20 09:00 43.801903 -115.742368 37 19863ft 260kts
05-Apr-20 09:01 43.859175 -115.678244 37 21224ft 271kts
05-Apr-20 09:02 43.919481 -115.610559 37 22419ft 283kts
05-Apr-20 09:03 43.980201 -115.542206 37 23877ft 280kts
05-Apr-20 09:04 44.037010 -115.467742 42 25384ft 280kts
05-Apr-20 09:05 44.092541 -115.391539 42 26941ft 280kts
05-Apr-20 09:06 44.148275 -115.314844 43 28366ft 289kts
05-Apr-20 09:07 44.208358 -115.231920 43 28771ft 325kts
05-Apr-20 09:08 44.275550 -115.138879 43 28763ft 351kts
05-Apr-20 09:09 44.346038 -115.040920 43 28768ft 361kts
05-Apr-20 09:10 44.417494 -114.941256 43 28776ft 365kts
05-Apr-20 09:11 44.489631 -114.840280 43 28771ft 367kts
05-Apr-20 09:12 44.561885 -114.738757 43 28772ft 368kts
05-Apr-20 09:13 44.634118 -114.636888 43 28775ft 370kts
05-Apr-20 09:14 44.706711 -114.534125 43 28776ft 370kts
05-Apr-20 09:15 44.779126 -114.431218 43 28776ft 370kts
05-Apr-20 09:16 44.851086 -114.328593 44 28771ft 369kts
05-Apr-20 09:17 44.922939 -114.225709 44 28772ft 368kts
05-Apr-20 09:18 44.994878 -114.122323 44 28773ft 368kts
05-Apr-20 09:19 45.068800 -114.022918 40 28774ft 367kts
05-Apr-20 09:20 45.143684 -113.925996 40 28771ft 368kts
05-Apr-20 09:21 45.219548 -113.827401 40 28769ft 369kts
05-Apr-20 09:22 45.294951 -113.729072 40 28768ft 369kts
05-Apr-20 09:23 45.370400 -113.630259 40 28779ft 368kts
05-Apr-20 09:24 45.445661 -113.531367 40 28771ft 369kts
05-Apr-20 09:25 45.521908 -113.430751 40 28058ft 386kts
05-Apr-20 09:26 45.601521 -113.325246 41 26362ft 401kts
05-Apr-20 09:27 45.683468 -113.216225 41 24564ft 398kts
05-Apr-20 09:28 45.763883 -113.108838 41 22808ft 392kts
05-Apr-20 09:30 45.842433 -113.003523 40 21095ft 382kts
05-Apr-20 09:31 45.918839 -112.900634 40 19427ft 366kts
05-Apr-20 09:32 45.991649 -112.802224 40 17835ft 353kts
05-Apr-20 09:33 46.062730 -112.705687 40 16278ft 349kts
05-Apr-20 09:34 46.132698 -112.610154 40 14739ft 344kts
05-Apr-20 09:35 46.200452 -112.517320 41 13996ft 319kts
05-Apr-20 09:36 46.263017 -112.431292 40 13999ft 305kts
05-Apr-20 09:37 46.323919 -112.347289 41 13955ft 304kts
05-Apr-20 09:38 46.387760 -112.258934 41 12996ft 311kts
05-Apr-20 09:39 46.448423 -112.174701 41 12995ft 294kts
05-Apr-20 09:40 46.506023 -112.094457 41 12987ft 267kts
05-Apr-20 09:41 46.539384 -112.006310 79 11129ft 251kts
05-Apr-20 09:42 46.546524 -111.909734 78 9080ft 236kts
05-Apr-20 09:43 46.580962 -111.838864 348 6558ft 225kts
05-Apr-20 09:44 46.589448 -111.902050 293 5311ft 155kts
05-Apr-20 09:45 46.600532 -111.946814 281 4121ft 97kts
05-Apr-20 09:45 46.604951 -111.975528 283 3847ft 54kts
05-Apr-20 09:47 46.604688 -111.980653 178 3849ft 0kts
05-Apr-20 09:48 46.603804 -111.980646 195 3852ft 8kts
05-Apr-20 09:49 46.603444 -111.986272 267 3856ft 15kts
05-Apr-20 09:49 46.603308 -111.990680 267 3864ft 14kts
05-Apr-20 09:51 46.602758 -111.996158 236 3876ft 4kts
05-Apr-20 09:52 46.602732 -111.996316 272 3877ft 0kts
05-Apr-20 09:52 46.602732 -111.996316 272 3877ft 0kts
05-Apr-20 09:53 46.602732 -111.996316 272 3877ft 0kts

Navigation Log

Ident Type
Flight plan parsing failed, navigation log unavailable